createdAt,value
2022-08-17T00:00:49.420Z,75.70
2022-08-17T00:03:25.766Z,75.40
2022-08-17T00:05:59.945Z,75.22
2022-08-17T00:08:34.561Z,75.18
2022-08-17T00:11:10.302Z,75.62
2022-08-17T00:13:48.457Z,75.99
2022-08-17T00:16:23.069Z,76.15
2022-08-17T00:19:17.959Z,76.27
2022-08-17T00:22:33.120Z,76.36
2022-08-17T00:24:42.888Z,76.36
2022-08-17T00:27:14.588Z,76.22
2022-08-17T00:29:46.881Z,76.26
2022-08-17T00:33:15.945Z,76.19
2022-08-17T00:35:13.965Z,76.23
2022-08-17T00:37:46.155Z,75.81
2022-08-17T00:40:19.332Z,75.65
2022-08-17T00:42:51.734Z,75.65
2022-08-17T00:45:23.743Z,75.50
2022-08-17T00:47:55.261Z,75.47
2022-08-17T00:50:26.848Z,75.44
2022-08-17T00:53:00.291Z,75.94
2022-08-17T00:55:32.862Z,76.30
2022-08-17T00:58:06.667Z,76.33
2022-08-17T01:00:41.942Z,76.39
2022-08-17T01:03:18.913Z,76.39
2022-08-17T01:05:51.522Z,76.39
2022-08-17T01:08:27.128Z,76.36
2022-08-17T01:11:02.475Z,76.03
2022-08-17T01:13:40.999Z,76.03
2022-08-17T01:16:17.810Z,76.11
2022-08-17T01:18:53.335Z,76.25
2022-08-17T01:21:32.876Z,76.36
2022-08-17T01:24:05.499Z,75.97
2022-08-17T01:26:37.950Z,75.95
2022-08-17T01:29:10.463Z,76.35
2022-08-17T01:31:45.728Z,76.85
2022-08-17T01:34:18.872Z,77.04
2022-08-17T01:36:52.584Z,77.22
2022-08-17T01:39:31.237Z,77.20
2022-08-17T01:42:09.429Z,77.16
2022-08-17T01:44:42.115Z,77.06
2022-08-17T01:47:13.966Z,76.98
2022-08-17T01:49:45.545Z,76.96
2022-08-17T01:52:17.973Z,76.74
2022-08-17T01:54:50.282Z,76.63
2022-08-17T01:57:21.912Z,76.87
2022-08-17T01:59:53.456Z,76.90
2022-08-17T02:02:30.475Z,77.04
2022-08-17T02:05:03.118Z,77.06
2022-08-17T02:07:59.982Z,76.96
2022-08-17T02:10:34.095Z,76.81
2022-08-17T02:13:07.096Z,76.74
2022-08-17T02:15:39.049Z,76.71
2022-08-17T02:18:11.625Z,76.80
2022-08-17T02:20:43.628Z,76.61
2022-08-17T02:23:15.697Z,76.40
2022-08-17T02:25:48.881Z,76.22
2022-08-17T02:28:21.390Z,76.08
2022-08-17T02:31:01.747Z,75.93
2022-08-17T02:33:42.716Z,76.13
2022-08-17T02:36:15.632Z,76.37
2022-08-17T02:38:47.740Z,76.77
2022-08-17T02:41:19.287Z,77.07
2022-08-17T02:43:51.144Z,77.30
2022-08-17T02:46:22.787Z,77.35
2022-08-17T02:48:54.532Z,77.28
2022-08-17T02:51:26.461Z,76.95
2022-08-17T02:54:35.588Z,76.73
2022-08-17T02:56:49.654Z,76.79
2022-08-17T02:59:21.165Z,76.82
2022-08-17T03:01:53.735Z,77.06
2022-08-17T03:04:25.417Z,77.03
2022-08-17T03:06:56.938Z,77.03
2022-08-17T03:09:28.815Z,77.16
2022-08-17T03:12:07.525Z,77.36
2022-08-17T03:14:41.886Z,77.60
2022-08-17T03:17:17.114Z,77.60
2022-08-17T03:19:49.214Z,77.64
2022-08-17T03:22:36.693Z,77.75
2022-08-17T03:25:19.615Z,77.87
2022-08-17T03:27:54.518Z,77.74
2022-08-17T03:30:28.180Z,77.77
2022-08-17T03:33:01.744Z,77.17
2022-08-17T03:35:36.389Z,76.88
2022-08-17T03:38:08.874Z,76.90
2022-08-17T03:40:58.931Z,77.18
2022-08-17T03:43:33.372Z,77.24
2022-08-17T03:46:34.229Z,77.50
2022-08-17T03:49:26.667Z,77.93
2022-08-17T03:52:16.992Z,77.84
2022-08-17T03:55:11.441Z,77.27
2022-08-17T03:57:43.212Z,77.04
2022-08-17T04:00:17.817Z,77.40
2022-08-17T04:02:49.676Z,77.71
2022-08-17T04:05:22.022Z,78.14
2022-08-17T04:07:53.602Z,78.42
2022-08-17T04:10:26.534Z,78.54
2022-08-17T04:12:59.216Z,78.27
2022-08-17T04:15:31.118Z,77.67
2022-08-17T04:18:02.845Z,76.91
2022-08-17T04:20:37.527Z,76.43
2022-08-17T04:23:11.297Z,76.37
2022-08-17T04:25:48.200Z,76.57
2022-08-17T04:28:21.178Z,76.61
2022-08-17T04:30:52.797Z,76.45
2022-08-17T04:33:25.661Z,75.97
2022-08-17T04:35:59.873Z,75.33
2022-08-17T04:38:33.942Z,74.62
2022-08-17T04:41:25.241Z,73.47
2022-08-17T04:43:58.504Z,72.39
2022-08-17T04:46:33.882Z,71.16
2022-08-17T04:49:08.416Z,70.11
2022-08-17T04:51:54.546Z,68.92
2022-08-17T04:54:27.937Z,68.28
2022-08-17T04:56:59.593Z,67.45
2022-08-17T04:59:31.055Z,66.48
2022-08-17T05:02:02.733Z,65.56
2022-08-17T05:04:35.496Z,64.25
2022-08-17T05:07:07.163Z,63.14
2022-08-17T05:09:38.609Z,62.16
2022-08-17T05:12:10.524Z,61.36
2022-08-17T05:14:42.437Z,60.24
2022-08-17T05:17:14.049Z,59.01
2022-08-17T05:19:51.784Z,58.61
2022-08-17T05:22:23.639Z,57.60
2022-08-17T05:24:56.106Z,57.40
2022-08-17T05:27:30.837Z,57.17
2022-08-17T05:30:08.641Z,56.17
2022-08-17T05:32:40.442Z,55.45
2022-08-17T05:35:12.473Z,54.43
2022-08-17T05:37:44.534Z,53.72
2022-08-17T05:40:19.033Z,52.82
2022-08-17T05:42:51.168Z,51.58
2022-08-17T05:45:23.684Z,50.68
2022-08-17T05:48:16.750Z,50.35
2022-08-17T05:50:57.073Z,50.16
2022-08-17T05:53:31.812Z,50.06
2022-08-17T05:56:29.592Z,49.52
2022-08-17T05:59:12.247Z,48.79
2022-08-17T06:01:51.312Z,47.78
2022-08-17T06:04:42.920Z,46.92
2022-08-17T06:07:21.822Z,46.57
2022-08-17T06:10:04.355Z,46.92
2022-08-17T06:12:48.869Z,46.19
2022-08-17T06:15:32.210Z,46.13
2022-08-17T06:18:07.487Z,46.04
2022-08-17T06:20:48.155Z,45.83
2022-08-17T06:23:26.455Z,45.33
2022-08-17T06:26:03.801Z,44.86
2022-08-17T06:28:41.240Z,45.04
2022-08-17T06:31:20.029Z,44.52
2022-08-17T06:33:52.031Z,43.61
2022-08-17T06:36:40.281Z,42.35
2022-08-17T06:39:33.436Z,42.12
2022-08-17T06:43:02.269Z,42.47
2022-08-17T06:45:13.538Z,42.76
2022-08-17T06:47:50.152Z,42.04
2022-08-17T06:50:28.512Z,41.10
2022-08-17T06:53:05.315Z,40.65
2022-08-17T06:55:46.564Z,40.29
2022-08-17T06:58:22.980Z,39.70
2022-08-17T07:01:06.037Z,38.53
2022-08-17T07:03:43.840Z,38.04
2022-08-17T07:06:20.109Z,36.80
2022-08-17T07:09:00.048Z,36.33
2022-08-17T07:11:38.802Z,36.81
2022-08-17T07:14:39.271Z,36.24
2022-08-17T07:17:14.249Z,36.33
2022-08-17T07:19:50.131Z,36.11
2022-08-17T07:22:31.273Z,35.78
2022-08-17T07:25:23.332Z,35.90
2022-08-17T07:27:59.764Z,35.22
2022-08-17T07:30:44.580Z,35.38
2022-08-17T07:33:22.710Z,35.37
2022-08-17T07:35:54.904Z,35.61
2022-08-17T07:38:28.538Z,36.01
2022-08-17T07:41:06.611Z,35.86
2022-08-17T07:43:47.800Z,35.48
2022-08-17T07:46:39.645Z,35.14
2022-08-17T07:49:24.836Z,35.81
2022-08-17T07:52:24.326Z,36.67
2022-08-17T07:55:01.082Z,36.82
2022-08-17T07:57:37.138Z,37.95
2022-08-17T08:00:19.697Z,38.40
2022-08-17T08:03:28.547Z,39.67
2022-08-17T08:06:03.481Z,41.15
2022-08-17T08:08:42.310Z,41.71
2022-08-17T08:11:30.978Z,42.36
2022-08-17T08:14:22.515Z,43.07
2022-08-17T08:17:02.879Z,43.74
2022-08-17T08:19:35.439Z,44.22
2022-08-17T08:22:11.256Z,44.10
2022-08-17T08:25:02.299Z,44.82
2022-08-17T08:27:48.095Z,44.11
2022-08-17T08:30:22.269Z,44.66
2022-08-17T08:33:12.556Z,45.43
2022-08-17T08:35:50.060Z,45.45
2022-08-17T08:38:30.823Z,46.25
2022-08-17T08:41:17.267Z,47.05
2022-08-17T08:43:56.990Z,47.12
2022-08-17T08:46:38.577Z,47.64
2022-08-17T08:50:01.930Z,47.29
2022-08-17T08:52:39.967Z,47.75
2022-08-17T08:55:19.282Z,47.63
2022-08-17T08:57:57.502Z,47.23
2022-08-17T09:00:35.766Z,47.49
2022-08-17T09:03:51.922Z,47.10
2022-08-17T09:06:38.972Z,47.35
2022-08-17T09:09:24.494Z,48.03
2022-08-17T09:12:06.343Z,48.41
2022-08-17T09:14:46.904Z,48.07
2022-08-17T09:17:22.942Z,47.70
2022-08-17T09:20:00.937Z,46.76
2022-08-17T09:22:38.752Z,46.83
2022-08-17T09:25:13.624Z,46.87
2022-08-17T09:27:52.371Z,46.81
2022-08-17T09:30:25.022Z,46.45
2022-08-17T09:33:00.081Z,46.75
2022-08-17T09:35:37.668Z,46.78
2022-08-17T09:38:25.065Z,46.41
2022-08-17T09:41:08.634Z,46.62
2022-08-17T09:43:47.643Z,46.29
2022-08-17T09:46:22.832Z,45.72
2022-08-17T09:49:04.260Z,45.63
2022-08-17T09:51:41.145Z,45.64
2022-08-17T09:54:38.706Z,45.97
2022-08-17T09:57:32.299Z,46.19
2022-08-17T10:00:20.461Z,45.90
2022-08-17T10:03:17.182Z,46.37
2022-08-17T10:05:56.773Z,47.01
2022-08-17T10:08:38.105Z,46.76
2022-08-17T10:11:19.466Z,47.19
2022-08-17T10:13:58.371Z,46.71
2022-08-17T10:16:41.340Z,46.59
2022-08-17T10:19:20.363Z,46.60
2022-08-17T10:22:35.244Z,45.58
2022-08-17T10:25:42.586Z,45.95
2022-08-17T10:28:29.473Z,45.74
2022-08-17T10:31:32.970Z,45.22
2022-08-17T10:34:28.042Z,44.95
2022-08-17T10:37:23.593Z,44.45
2022-08-17T10:40:09.031Z,43.96
2022-08-17T10:42:53.306Z,44.18
2022-08-17T10:45:32.219Z,44.02
2022-08-17T10:48:22.021Z,44.42
2022-08-17T10:51:01.822Z,44.61
2022-08-17T10:53:54.934Z,44.12
2022-08-17T10:56:42.723Z,44.19
2022-08-17T10:59:59.425Z,44.40
2022-08-17T11:02:39.641Z,45.21
2022-08-17T11:05:23.668Z,45.30
2022-08-17T11:08:08.414Z,45.07
2022-08-17T11:11:07.578Z,44.54
2022-08-17T11:13:48.441Z,44.11
2022-08-17T11:16:45.608Z,44.02
2022-08-17T11:19:43.448Z,44.38
2022-08-17T11:22:33.587Z,44.79
2022-08-17T11:25:17.381Z,44.96
2022-08-17T11:27:53.846Z,44.84
2022-08-17T11:30:48.452Z,45.12
2022-08-17T11:33:56.019Z,45.87
2022-08-17T11:36:56.042Z,45.25
2022-08-17T11:39:42.777Z,45.26
2022-08-17T11:42:32.594Z,45.42
2022-08-17T11:45:32.292Z,44.72
2022-08-17T11:48:34.248Z,44.45
2022-08-17T11:51:29.470Z,44.45
2022-08-17T11:57:23.892Z,45.07
2022-08-17T12:00:11.237Z,44.76
2022-08-17T12:02:48.908Z,43.73
2022-08-17T12:05:38.765Z,43.01
2022-08-17T12:08:18.564Z,43.53
2022-08-17T12:10:59.291Z,43.94
2022-08-17T12:13:40.665Z,44.21
2022-08-17T12:16:17.355Z,44.78
2022-08-17T12:18:54.246Z,44.26
2022-08-17T12:21:43.641Z,43.74
2022-08-17T12:24:33.644Z,43.40
2022-08-17T12:27:08.021Z,43.87
2022-08-17T12:29:43.790Z,44.55
2022-08-17T12:32:20.586Z,43.74
2022-08-17T12:34:55.204Z,43.72
2022-08-17T12:37:31.981Z,43.97
2022-08-17T12:40:09.486Z,44.06
2022-08-17T12:42:41.773Z,43.43
2022-08-17T12:45:25.780Z,42.23
2022-08-17T12:48:07.840Z,41.89
2022-08-17T12:50:41.582Z,41.33
2022-08-17T12:53:15.848Z,42.02
2022-08-17T12:55:48.482Z,41.70
2022-08-17T12:58:25.261Z,41.43
2022-08-17T13:01:04.335Z,42.11
2022-08-17T13:03:45.543Z,41.92
2022-08-17T13:06:32.090Z,41.73
2022-08-17T13:09:14.510Z,40.55
2022-08-17T13:11:52.932Z,39.66
2022-08-17T13:14:28.143Z,40.14
2022-08-17T13:17:06.270Z,40.87
2022-08-17T13:19:50.553Z,41.38
2022-08-17T13:22:26.666Z,41.22
2022-08-17T13:25:03.656Z,40.63
2022-08-17T13:27:35.517Z,40.15
2022-08-17T13:30:20.753Z,39.95
2022-08-17T13:33:05.003Z,39.46
2022-08-17T13:35:45.888Z,39.62
2022-08-17T13:41:40.579Z,39.64
2022-08-17T13:44:36.563Z,39.67
2022-08-17T13:47:14.062Z,40.07
2022-08-17T13:49:48.899Z,39.96
2022-08-17T13:52:37.858Z,39.90
2022-08-17T13:55:15.401Z,39.78
2022-08-17T13:57:46.966Z,40.05
2022-08-17T14:00:30.022Z,40.22
2022-08-17T14:02:59.350Z,40.25
2022-08-17T14:05:28.959Z,39.93
2022-08-17T14:08:00.530Z,39.87
2022-08-17T14:10:29.662Z,39.19
2022-08-17T14:12:57.937Z,39.06
2022-08-17T14:15:54.543Z,39.03
2022-08-17T14:18:17.683Z,39.28
2022-08-17T14:20:46.655Z,39.00
2022-08-17T14:23:15.116Z,39.24
2022-08-17T14:25:45.192Z,39.38
2022-08-17T14:28:15.109Z,39.44
2022-08-17T14:30:43.557Z,40.06
2022-08-17T14:33:12.205Z,40.57
2022-08-17T14:35:40.661Z,41.08
2022-08-17T14:38:09.210Z,41.14
2022-08-17T14:40:38.560Z,40.17
2022-08-17T14:43:07.093Z,39.88
2022-08-17T14:45:35.523Z,40.21
2022-08-17T14:48:06.914Z,40.42
2022-08-17T14:50:38.420Z,40.76
2022-08-17T14:53:08.943Z,41.27
2022-08-17T14:55:40.132Z,41.61
2022-08-17T14:58:08.721Z,41.93
2022-08-17T15:00:38.994Z,42.27
2022-08-17T15:03:07.509Z,42.52
2022-08-17T15:05:38.400Z,42.58
2022-08-17T15:08:07.101Z,42.52
2022-08-17T15:10:36.759Z,42.26
2022-08-17T15:13:10.252Z,41.89
2022-08-17T15:15:39.229Z,41.79
2022-08-17T15:18:07.767Z,41.98
2022-08-17T15:20:36.310Z,41.89
2022-08-17T15:23:06.358Z,42.12
2022-08-17T15:25:38.871Z,42.19
2022-08-17T15:28:08.590Z,41.89
2022-08-17T15:30:42.221Z,42.22
2022-08-17T15:33:14.817Z,42.11
2022-08-17T15:35:50.486Z,42.80
2022-08-17T15:38:29.670Z,43.31
2022-08-17T15:41:31.116Z,43.30
2022-08-17T15:43:59.880Z,42.56
2022-08-17T15:46:30.928Z,42.62
2022-08-17T15:49:19.492Z,42.51
2022-08-17T15:51:56.607Z,42.60
2022-08-17T15:54:25.774Z,42.60
2022-08-17T15:57:01.145Z,42.91
2022-08-17T15:59:29.811Z,42.74
2022-08-17T16:03:13.775Z,42.70
2022-08-17T16:04:51.750Z,42.94
2022-08-17T16:07:24.454Z,43.12
2022-08-17T16:09:55.675Z,43.29
2022-08-17T16:12:24.653Z,43.71
2022-08-17T16:15:08.470Z,43.82
2022-08-17T16:17:39.976Z,44.06
2022-08-17T16:20:20.021Z,44.61
2022-08-17T16:22:50.544Z,44.72
2022-08-17T16:25:22.067Z,44.54
2022-08-17T16:27:52.756Z,44.64
2022-08-17T16:30:24.709Z,44.82
2022-08-17T16:32:54.533Z,44.84
2022-08-17T16:35:26.419Z,44.81
2022-08-17T16:37:58.527Z,45.11
2022-08-17T16:40:29.543Z,44.80
2022-08-17T16:42:59.629Z,44.93
2022-08-17T16:45:35.671Z,45.16
2022-08-17T16:48:07.521Z,45.20
2022-08-17T16:50:36.534Z,45.55
2022-08-17T16:53:08.320Z,45.87
2022-08-17T16:55:37.800Z,45.92
2022-08-17T16:58:45.417Z,46.20
2022-08-17T17:01:27.388Z,46.62
2022-08-17T17:03:59.580Z,47.05
2022-08-17T17:06:37.504Z,47.33
2022-08-17T17:09:10.352Z,47.66
2022-08-17T17:11:43.884Z,48.12
2022-08-17T17:14:17.507Z,48.84
2022-08-17T17:16:51.870Z,49.32
2022-08-17T17:19:34.628Z,49.56
2022-08-17T17:22:13.603Z,49.87
2022-08-17T17:24:51.322Z,50.30
2022-08-17T17:27:36.313Z,50.50
2022-08-17T17:30:10.104Z,51.12
2022-08-17T17:32:46.443Z,51.54
2022-08-17T17:35:22.703Z,51.56
2022-08-17T17:37:52.912Z,52.00
2022-08-17T17:40:25.161Z,52.41
2022-08-17T17:43:09.270Z,52.82
2022-08-17T17:45:52.873Z,53.13
2022-08-17T17:48:21.312Z,53.25
2022-08-17T17:51:01.994Z,53.60
2022-08-17T17:53:43.009Z,53.63
2022-08-17T17:56:43.271Z,54.22
2022-08-17T17:59:17.565Z,54.70
2022-08-17T18:01:55.028Z,54.83
2022-08-17T18:04:30.562Z,55.26
2022-08-17T18:07:18.989Z,55.44
2022-08-17T18:10:19.739Z,55.99
2022-08-17T18:13:10.778Z,56.23
2022-08-17T18:15:50.287Z,56.40
2022-08-17T18:18:37.265Z,56.74
2022-08-17T18:21:17.870Z,56.78
2022-08-17T18:23:53.835Z,57.09
2022-08-17T18:26:41.924Z,57.34
2022-08-17T18:29:38.193Z,57.61
2022-08-17T18:32:30.586Z,58.05
2022-08-17T18:35:05.051Z,58.20
2022-08-17T18:37:45.533Z,58.44
2022-08-17T18:40:39.083Z,58.75
2022-08-17T18:43:22.956Z,59.17
2022-08-17T18:45:53.860Z,59.46
2022-08-17T18:48:38.606Z,59.69
2022-08-17T18:51:40.839Z,59.96
2022-08-17T18:54:22.034Z,60.14
2022-08-17T18:56:53.820Z,60.08
2022-08-17T18:59:42.200Z,60.67
2022-08-17T19:02:45.597Z,61.00
2022-08-17T19:05:27.125Z,61.36
2022-08-17T19:08:18.552Z,61.62
2022-08-17T19:10:50.200Z,61.95
2022-08-17T19:13:24.887Z,62.04
2022-08-17T19:16:12.058Z,61.98
2022-08-17T19:18:48.745Z,62.13
2022-08-17T19:21:21.360Z,62.54
2022-08-17T19:23:57.969Z,62.81
2022-08-17T19:26:53.742Z,63.00
2022-08-17T19:29:24.984Z,62.95
2022-08-17T19:31:54.597Z,63.03
2022-08-17T19:34:30.073Z,63.25
2022-08-17T19:37:09.421Z,63.55
2022-08-17T19:39:50.480Z,63.54
2022-08-17T19:42:41.823Z,63.92
2022-08-17T19:45:22.441Z,64.36
2022-08-17T19:48:02.858Z,64.60
2022-08-17T19:50:37.779Z,64.82
2022-08-17T19:53:17.840Z,65.35
2022-08-17T19:55:59.414Z,64.97
2022-08-17T19:58:51.896Z,64.98
2022-08-17T20:01:34.876Z,65.58
2022-08-17T20:04:12.421Z,65.66
2022-08-17T20:06:46.076Z,65.90
2022-08-17T20:09:20.777Z,66.22
2022-08-17T20:11:55.538Z,66.00
2022-08-17T20:14:30.683Z,66.33
2022-08-17T20:17:02.590Z,66.52
2022-08-17T20:19:42.808Z,66.36
2022-08-17T20:22:20.366Z,66.60
2022-08-17T20:24:58.360Z,66.90
2022-08-17T20:27:31.537Z,67.01
2022-08-17T20:30:06.573Z,66.98
2022-08-17T20:32:48.684Z,67.14
2022-08-17T20:35:24.486Z,67.11
2022-08-17T20:37:57.159Z,66.97
2022-08-17T20:40:29.118Z,67.05
2022-08-17T20:42:59.099Z,67.21
2022-08-17T20:45:58.307Z,67.56
2022-08-17T20:48:38.307Z,67.57
2022-08-17T20:51:22.221Z,67.73
2022-08-17T20:54:40.442Z,67.79
2022-08-17T20:57:14.212Z,67.87
2022-08-17T21:00:13.844Z,68.15
2022-08-17T21:02:44.000Z,68.34
2022-08-17T21:05:31.660Z,68.34
2022-08-17T21:08:12.640Z,68.26
2022-08-17T21:10:40.664Z,68.49
2022-08-17T21:13:34.170Z,68.75
2022-08-17T21:16:20.598Z,68.80
2022-08-17T21:19:00.136Z,68.55
2022-08-17T21:21:37.377Z,68.72
2022-08-17T21:24:18.685Z,69.25
2022-08-17T21:26:56.347Z,69.42
2022-08-17T21:29:30.831Z,69.27
2022-08-17T21:32:24.705Z,69.37
2022-08-17T21:35:26.049Z,69.64
2022-08-17T21:38:01.616Z,70.04
2022-08-17T21:40:32.511Z,70.28
2022-08-17T21:43:16.679Z,70.26
2022-08-17T21:45:57.072Z,70.38
2022-08-17T21:48:26.733Z,70.15
2022-08-17T21:51:03.227Z,70.36
2022-08-17T21:53:38.288Z,70.50
2022-08-17T21:56:11.327Z,70.75
2022-08-17T21:58:47.900Z,70.56
2022-08-17T22:01:23.636Z,70.71
2022-08-17T22:04:03.215Z,70.77
2022-08-17T22:06:37.915Z,70.71
2022-08-17T22:09:17.199Z,70.56
2022-08-17T22:11:55.244Z,70.91
2022-08-17T22:14:26.373Z,70.99
2022-08-17T22:17:08.008Z,70.65
2022-08-17T22:19:38.369Z,70.97
2022-08-17T22:22:09.651Z,71.20
2022-08-17T22:24:38.712Z,71.30
2022-08-17T22:27:10.841Z,71.51
2022-08-17T22:29:53.251Z,71.57
2022-08-17T22:32:41.995Z,71.71
2022-08-17T22:35:35.929Z,71.65
2022-08-17T22:38:27.211Z,71.61
2022-08-17T22:40:57.166Z,71.76
2022-08-17T22:43:29.095Z,72.23
2022-08-17T22:45:59.561Z,72.13
2022-08-17T22:48:30.562Z,72.20
2022-08-17T22:51:12.678Z,72.15
2022-08-17T22:54:06.776Z,72.05
2022-08-17T22:56:53.727Z,71.89
2022-08-17T22:59:42.939Z,71.98
2022-08-17T23:02:24.408Z,72.05
2022-08-17T23:04:56.820Z,72.29
2022-08-17T23:07:26.237Z,72.63
2022-08-17T23:09:57.191Z,72.81
2022-08-17T23:12:27.086Z,72.91
2022-08-17T23:15:00.241Z,73.03
2022-08-17T23:17:36.903Z,73.08
2022-08-17T23:20:11.411Z,72.91
2022-08-17T23:22:52.438Z,73.01
2022-08-17T23:25:27.313Z,72.97
2022-08-17T23:27:57.767Z,72.75
2022-08-17T23:30:27.824Z,72.74
2022-08-17T23:32:58.888Z,72.59
2022-08-17T23:35:39.806Z,72.47
2022-08-17T23:38:10.389Z,72.81
2022-08-17T23:40:40.065Z,72.82
2022-08-17T23:43:17.604Z,73.05
2022-08-17T23:45:54.227Z,73.20
2022-08-17T23:48:32.589Z,73.31
2022-08-17T23:51:12.182Z,73.62
2022-08-17T23:53:45.490Z,73.62
2022-08-17T23:56:14.267Z,73.69
2022-08-17T23:58:44.059Z,73.60
